CheckWX is a tool to help pilots better visualize weather data.  It is not intended as a substitute for an official pre-flight weather briefing.

19:00:07 UTC

KGEZ METAR
Shelbyville Municipal Airport
Shelbyville, Indiana, USA
Current

1 hour ago

KGEZ 221753Z AUTO 07009KT 7SM CLR 03/M02 A3037 RMK AO2 SLP289 T00331017 10033 21006 58010
Observed
Feb-22 @ 17:53 UTC
Wind
  • 070° at 9 KTS
Visibility
7 SM
Flight Rules
VFR
Cloud Levels
  • Clear skies
Temperature
C / 37°F
Dewpoint
-2°C / 28°F
Humidity
70%
Altimeter
30.37" Hg
Pressure
1028.9 hPa
Previous

2 hours ago

KGEZ 221653Z AUTO 09010KT 7SM CLR 02/M02 A3040 RMK AO2 SLP301 T00221022
Observed
Feb-22 @ 16:53 UTC
Wind
  • 090° at 10 KTS
Visibility
7 SM
Flight Rules
VFR
Cloud Levels
  • Clear skies
Temperature
C / 36°F
Dewpoint
-2°C / 28°F
Humidity
75%
Altimeter
30.4" Hg
Pressure
1030.1 hPa
Previous

3 hours ago

KGEZ 221553Z AUTO 09009KT 6SM HZ CLR 01/M03 A3040 RMK AO2 SLP300 T00111028
Observed
Feb-22 @ 15:53 UTC
Wind
  • 090° at 9 KTS
Visibility
6 SM
Flight Rules
VFR
Conditions
Haze
Cloud Levels
  • Clear skies
Temperature
C / 34°F
Dewpoint
-3°C / 27°F
Humidity
75%
Altimeter
30.4" Hg
Pressure
1030 hPa